sensor_id;sensor_type;location;lat;lon;timestamp;pressure;altitude;pressure_sealevel;temperature;humidity
64460;BME280;50828;53.756;21.140;2022-09-21T00:00:48;99997.88;;;10.30;73.23
64460;BME280;50828;53.756;21.140;2022-09-21T00:06:03;100002.42;;;10.31;73.38
64460;BME280;50828;53.756;21.140;2022-09-21T00:11:15;100001.70;;;10.31;73.25
64460;BME280;50828;53.756;21.140;2022-09-21T00:16:23;100005.19;;;10.33;73.49
64460;BME280;50828;53.756;21.140;2022-09-21T00:21:32;100003.05;;;10.33;73.51
64460;BME280;50828;53.756;21.140;2022-09-21T00:26:40;100004.98;;;10.34;73.33
64460;BME280;50828;53.756;21.140;2022-09-21T00:31:48;100004.08;;;10.34;73.39
64460;BME280;50828;53.756;21.140;2022-09-21T00:36:55;100010.48;;;10.37;73.47
64460;BME280;50828;53.756;21.140;2022-09-21T00:42:12;100006.40;;;10.38;73.52
64460;BME280;50828;53.756;21.140;2022-09-21T00:47:25;100011.27;;;10.39;73.73
64460;BME280;50828;53.756;21.140;2022-09-21T00:52:33;100011.91;;;10.40;73.86
64460;BME280;50828;53.756;21.140;2022-09-21T00:57:44;100017.45;;;10.43;74.02
64460;BME280;50828;53.756;21.140;2022-09-21T01:02:55;100020.35;;;10.44;73.86
64460;BME280;50828;53.756;21.140;2022-09-21T01:08:08;100018.86;;;10.47;73.87
64460;BME280;50828;53.756;21.140;2022-09-21T01:13:24;100024.77;;;10.49;73.72
64460;BME280;50828;53.756;21.140;2022-09-21T01:18:39;100024.20;;;10.50;73.88
64460;BME280;50828;53.756;21.140;2022-09-21T01:24:20;100022.38;;;10.52;73.90
64460;BME280;50828;53.756;21.140;2022-09-21T01:29:32;100024.20;;;10.54;73.89
64460;BME280;50828;53.756;21.140;2022-09-21T01:34:48;100026.95;;;10.56;73.90
64460;BME280;50828;53.756;21.140;2022-09-21T01:40:01;100030.08;;;10.57;73.94
64460;BME280;50828;53.756;21.140;2022-09-21T01:45:12;100034.77;;;10.58;74.07
64460;BME280;50828;53.756;21.140;2022-09-21T01:50:23;100037.55;;;10.60;73.88
64460;BME280;50828;53.756;21.140;2022-09-21T01:55:35;100039.98;;;10.60;74.01
64460;BME280;50828;53.756;21.140;2022-09-21T02:00:49;100040.88;;;10.60;73.95
64460;BME280;50828;53.756;21.140;2022-09-21T02:06:00;100045.64;;;10.59;74.12
64460;BME280;50828;53.756;21.140;2022-09-21T02:11:09;100046.77;;;10.58;73.82
64460;BME280;50828;53.756;21.140;2022-09-21T02:16:35;100051.23;;;10.56;73.90
64460;BME280;50828;53.756;21.140;2022-09-21T02:21:57;100052.55;;;10.54;73.72
64460;BME280;50828;53.756;21.140;2022-09-21T02:27:17;100054.38;;;10.53;74.00
64460;BME280;50828;53.756;21.140;2022-09-21T02:32:33;100052.02;;;10.50;74.02
64460;BME280;50828;53.756;21.140;2022-09-21T02:37:48;100050.86;;;10.48;73.90
64460;BME280;50828;53.756;21.140;2022-09-21T02:43:05;100054.31;;;10.45;73.57
64460;BME280;50828;53.756;21.140;2022-09-21T02:48:18;100057.88;;;10.44;73.62
64460;BME280;50828;53.756;21.140;2022-09-21T02:53:29;100064.81;;;10.43;74.00
64460;BME280;50828;53.756;21.140;2022-09-21T02:58:41;100074.23;;;10.40;73.69
64460;BME280;50828;53.756;21.140;2022-09-21T03:03:51;100085.01;;;10.39;73.80
64460;BME280;50828;53.756;21.140;2022-09-21T03:08:59;100089.98;;;10.38;73.82
64460;BME280;50828;53.756;21.140;2022-09-21T03:14:07;100093.39;;;10.36;74.14
64460;BME280;50828;53.756;21.140;2022-09-21T03:19:16;100102.06;;;10.36;74.01
64460;BME280;50828;53.756;21.140;2022-09-21T03:24:24;100104.70;;;10.36;73.88
64460;BME280;50828;53.756;21.140;2022-09-21T03:29:49;100106.52;;;10.34;74.22
64460;BME280;50828;53.756;21.140;2022-09-21T03:34:57;100109.20;;;10.34;74.03
64460;BME280;50828;53.756;21.140;2022-09-21T03:40:06;100114.51;;;10.32;73.97
64460;BME280;50828;53.756;21.140;2022-09-21T03:45:13;100117.30;;;10.33;74.14
64460;BME280;50828;53.756;21.140;2022-09-21T03:50:25;100118.38;;;10.33;74.11
64460;BME280;50828;53.756;21.140;2022-09-21T03:55:31;100122.63;;;10.32;74.04
64460;BME280;50828;53.756;21.140;2022-09-21T04:00:40;100129.83;;;10.32;74.12
64460;BME280;50828;53.756;21.140;2022-09-21T04:05:48;100138.46;;;10.31;74.18
64460;BME280;50828;53.756;21.140;2022-09-21T04:10:56;100139.91;;;10.30;74.22
64460;BME280;50828;53.756;21.140;2022-09-21T04:16:05;100136.95;;;10.29;74.11
64460;BME280;50828;53.756;21.140;2022-09-21T04:21:14;100137.33;;;10.29;74.12
64460;BME280;50828;53.756;21.140;2022-09-21T04:26:24;100147.19;;;10.28;74.14
64460;BME280;50828;53.756;21.140;2022-09-21T04:31:33;100146.52;;;10.27;74.22
64460;BME280;50828;53.756;21.140;2022-09-21T04:36:41;100146.59;;;10.26;74.23
64460;BME280;50828;53.756;21.140;2022-09-21T04:41:49;100154.13;;;10.26;74.05
64460;BME280;50828;53.756;21.140;2022-09-21T04:46:57;100154.36;;;10.25;74.01
64460;BME280;50828;53.756;21.140;2022-09-21T04:52:05;100157.73;;;10.25;74.45
64460;BME280;50828;53.756;21.140;2022-09-21T04:57:14;100151.77;;;10.24;74.00
64460;BME280;50828;53.756;21.140;2022-09-21T05:02:22;100152.27;;;10.24;74.29
64460;BME280;50828;53.756;21.140;2022-09-21T05:07:30;100157.25;;;10.23;74.21
64460;BME280;50828;53.756;21.140;2022-09-21T05:12:39;100162.88;;;10.23;74.26
64460;BME280;50828;53.756;21.140;2022-09-21T05:17:49;100173.25;;;10.24;74.34
64460;BME280;50828;53.756;21.140;2022-09-21T05:23:00;100176.23;;;10.24;74.65
64460;BME280;50828;53.756;21.140;2022-09-21T05:28:10;100184.47;;;10.25;74.67
64460;BME280;50828;53.756;21.140;2022-09-21T05:33:20;100193.44;;;10.25;74.21
64460;BME280;50828;53.756;21.140;2022-09-21T05:38:30;100197.34;;;10.25;74.65
64460;BME280;50828;53.756;21.140;2022-09-21T05:43:39;100204.86;;;10.26;74.65
64460;BME280;50828;53.756;21.140;2022-09-21T05:48:53;100209.77;;;10.26;74.49
64460;BME280;50828;53.756;21.140;2022-09-21T05:54:09;100214.49;;;10.26;74.35
64460;BME280;50828;53.756;21.140;2022-09-21T05:59:34;100210.45;;;10.26;74.63
64460;BME280;50828;53.756;21.140;2022-09-21T06:04:48;100213.20;;;10.28;74.45
64460;BME280;50828;53.756;21.140;2022-09-21T06:09:57;100211.55;;;10.30;74.65
64460;BME280;50828;53.756;21.140;2022-09-21T06:15:07;100209.02;;;10.33;74.58
64460;BME280;50828;53.756;21.140;2022-09-21T06:20:17;100215.34;;;10.38;74.77
64460;BME280;50828;53.756;21.140;2022-09-21T06:25:25;100216.73;;;10.43;74.73
64460;BME280;50828;53.756;21.140;2022-09-21T06:30:34;100219.05;;;10.46;74.90
64460;BME280;50828;53.756;21.140;2022-09-21T06:35:42;100217.98;;;10.53;74.84
64460;BME280;50828;53.756;21.140;2022-09-21T06:40:51;100217.52;;;10.59;74.83
64460;BME280;50828;53.756;21.140;2022-09-21T06:46:00;100223.86;;;10.68;74.55
64460;BME280;50828;53.756;21.140;2022-09-21T06:51:10;100221.38;;;10.78;74.61
64460;BME280;50828;53.756;21.140;2022-09-21T06:56:18;100222.43;;;10.87;74.49
64460;BME280;50828;53.756;21.140;2022-09-21T07:01:26;100227.67;;;10.97;74.67
64460;BME280;50828;53.756;21.140;2022-09-21T07:06:35;100231.65;;;11.08;74.50
64460;BME280;50828;53.756;21.140;2022-09-21T07:11:43;100237.98;;;11.17;74.61
64460;BME280;50828;53.756;21.140;2022-09-21T07:16:53;100240.45;;;11.26;74.77
64460;BME280;50828;53.756;21.140;2022-09-21T07:22:01;100242.69;;;11.35;74.54
64460;BME280;50828;53.756;21.140;2022-09-21T07:27:10;100246.20;;;11.44;74.27
64460;BME280;50828;53.756;21.140;2022-09-21T07:32:18;100250.73;;;11.54;74.31
64460;BME280;50828;53.756;21.140;2022-09-21T07:37:27;100251.25;;;11.63;74.31
64460;BME280;50828;53.756;21.140;2022-09-21T07:42:35;100256.34;;;11.72;74.19
64460;BME280;50828;53.756;21.140;2022-09-21T07:47:43;100256.34;;;11.80;74.27
64460;BME280;50828;53.756;21.140;2022-09-21T07:52:51;100259.77;;;11.91;73.97
64460;BME280;50828;53.756;21.140;2022-09-21T07:58:00;100261.85;;;12.08;73.83
64460;BME280;50828;53.756;21.140;2022-09-21T08:03:25;100263.70;;;12.22;73.61
64460;BME280;50828;53.756;21.140;2022-09-21T08:08:33;100265.95;;;12.32;73.43
64460;BME280;50828;53.756;21.140;2022-09-21T08:13:40;100261.63;;;12.37;73.49
64460;BME280;50828;53.756;21.140;2022-09-21T08:18:47;100264.30;;;12.41;73.27
64460;BME280;50828;53.756;21.140;2022-09-21T08:23:54;100262.66;;;12.45;72.74
64460;BME280;50828;53.756;21.140;2022-09-21T08:29:03;100265.41;;;12.51;72.54
64460;BME280;50828;53.756;21.140;2022-09-21T08:34:11;100262.68;;;12.57;72.52
64460;BME280;50828;53.756;21.140;2022-09-21T08:39:18;100270.15;;;12.67;72.42
64460;BME280;50828;53.756;21.140;2022-09-21T08:44:27;100271.39;;;12.79;72.32
64460;BME280;50828;53.756;21.140;2022-09-21T08:49:37;100273.38;;;12.89;72.38
64460;BME280;50828;53.756;21.140;2022-09-21T08:54:50;100273.65;;;12.95;71.70
64460;BME280;50828;53.756;21.140;2022-09-21T09:00:06;100270.92;;;12.99;71.73
64460;BME280;50828;53.756;21.140;2022-09-21T09:05:27;100268.83;;;13.07;71.78
64460;BME280;50828;53.756;21.140;2022-09-21T09:10:42;100269.85;;;13.18;71.11
64460;BME280;50828;53.756;21.140;2022-09-21T09:16:04;100263.95;;;13.27;70.89
64460;BME280;50828;53.756;21.140;2022-09-21T09:21:18;100271.46;;;13.37;70.38
64460;BME280;50828;53.756;21.140;2022-09-21T09:26:39;100276.75;;;13.45;70.16
64460;BME280;50828;53.756;21.140;2022-09-21T09:31:52;100270.96;;;13.47;69.69
64460;BME280;50828;53.756;21.140;2022-09-21T09:37:04;100271.21;;;13.53;69.77
64460;BME280;50828;53.756;21.140;2022-09-21T09:42:27;100277.20;;;13.61;69.47
64460;BME280;50828;53.756;21.140;2022-09-21T09:47:47;100269.83;;;13.66;69.24
64460;BME280;50828;53.756;21.140;2022-09-21T09:53:01;100264.56;;;13.72;68.96
64460;BME280;50828;53.756;21.140;2022-09-21T09:58:17;100262.16;;;13.81;68.47
64460;BME280;50828;53.756;21.140;2022-09-21T10:03:26;100262.35;;;13.88;67.97
64460;BME280;50828;53.756;21.140;2022-09-21T10:08:43;100264.13;;;13.95;67.86
64460;BME280;50828;53.756;21.140;2022-09-21T10:13:53;100264.45;;;13.99;67.61
64460;BME280;50828;53.756;21.140;2022-09-21T10:19:00;100264.11;;;14.02;67.20
64460;BME280;50828;53.756;21.140;2022-09-21T10:24:19;100259.42;;;14.04;66.88
64460;BME280;50828;53.756;21.140;2022-09-21T10:29:37;100252.30;;;14.04;66.75
64460;BME280;50828;53.756;21.140;2022-09-21T10:35:12;100245.42;;;14.10;66.78
64460;BME280;50828;53.756;21.140;2022-09-21T10:40:28;100243.34;;;14.20;65.94
64460;BME280;50828;53.756;21.140;2022-09-21T10:45:36;100248.78;;;14.31;65.51
64460;BME280;50828;53.756;21.140;2022-09-21T10:50:45;100251.55;;;14.39;65.26
64460;BME280;50828;53.756;21.140;2022-09-21T10:55:59;100250.23;;;14.43;64.69
64460;BME280;50828;53.756;21.140;2022-09-21T11:01:23;100251.94;;;14.44;64.21
64460;BME280;50828;53.756;21.140;2022-09-21T11:06:36;100252.01;;;14.43;64.04
64460;BME280;50828;53.756;21.140;2022-09-21T11:11:51;100250.99;;;14.46;64.00
64460;BME280;50828;53.756;21.140;2022-09-21T11:17:06;100249.90;;;14.49;64.09
64460;BME280;50828;53.756;21.140;2022-09-21T11:22:21;100246.51;;;14.53;64.07
64460;BME280;50828;53.756;21.140;2022-09-21T11:27:32;100244.66;;;14.58;63.81
64460;BME280;50828;53.756;21.140;2022-09-21T11:32:55;100244.56;;;14.63;63.43
64460;BME280;50828;53.756;21.140;2022-09-21T11:38:16;100243.23;;;14.68;63.32
64460;BME280;50828;53.756;21.140;2022-09-21T11:43:39;100241.14;;;14.74;63.28
64460;BME280;50828;53.756;21.140;2022-09-21T11:48:58;100234.27;;;14.80;62.81
64460;BME280;50828;53.756;21.140;2022-09-21T11:54:32;100236.39;;;14.90;62.85
64460;BME280;50828;53.756;21.140;2022-09-21T12:00:09;100236.25;;;15.01;62.09
64460;BME280;50828;53.756;21.140;2022-09-21T12:05:26;100238.30;;;15.09;61.69
64460;BME280;50828;53.756;21.140;2022-09-21T12:10:41;100238.65;;;15.15;61.30
64460;BME280;50828;53.756;21.140;2022-09-21T12:15:55;100244.77;;;15.17;60.70
64460;BME280;50828;53.756;21.140;2022-09-21T12:21:11;100240.98;;;15.18;60.63
64460;BME280;50828;53.756;21.140;2022-09-21T12:26:22;100236.11;;;15.20;60.43
64460;BME280;50828;53.756;21.140;2022-09-21T12:31:36;100233.51;;;15.21;60.21
64460;BME280;50828;53.756;21.140;2022-09-21T12:36:49;100234.15;;;15.23;59.47
64460;BME280;50828;53.756;21.140;2022-09-21T12:42:03;100235.48;;;15.21;59.19
64460;BME280;50828;53.756;21.140;2022-09-21T12:47:14;100231.55;;;15.19;59.40
64460;BME280;50828;53.756;21.140;2022-09-21T12:52:25;100233.88;;;15.15;59.40
64460;BME280;50828;53.756;21.140;2022-09-21T12:57:46;100233.64;;;15.10;59.36
64460;BME280;50828;53.756;21.140;2022-09-21T13:03:20;100230.22;;;15.04;59.20
64460;BME280;50828;53.756;21.140;2022-09-21T13:08:34;100232.42;;;15.00;59.48
64460;BME280;50828;53.756;21.140;2022-09-21T13:13:48;100230.48;;;14.97;59.42
64460;BME280;50828;53.756;21.140;2022-09-21T13:18:59;100227.05;;;14.95;59.37
64460;BME280;50828;53.756;21.140;2022-09-21T13:24:21;100225.75;;;14.93;59.16
64460;BME280;50828;53.756;21.140;2022-09-21T13:29:33;100224.33;;;14.93;59.23
64460;BME280;50828;53.756;21.140;2022-09-21T13:34:42;100220.70;;;14.94;58.82
64460;BME280;50828;53.756;21.140;2022-09-21T13:45:47;100225.36;;;14.99;58.46
64460;BME280;50828;53.756;21.140;2022-09-21T13:50:57;100230.48;;;15.06;58.61
64460;BME280;50828;53.756;21.140;2022-09-21T13:56:15;100230.73;;;15.11;58.45
64460;BME280;50828;53.756;21.140;2022-09-21T14:01:31;100226.21;;;15.19;58.28
64460;BME280;50828;53.756;21.140;2022-09-21T14:06:52;100227.00;;;15.27;58.05
64460;BME280;50828;53.756;21.140;2022-09-21T14:12:03;100219.38;;;15.30;57.87
64460;BME280;50828;53.756;21.140;2022-09-21T14:17:35;100225.53;;;15.31;57.65
64460;BME280;50828;53.756;21.140;2022-09-21T14:22:44;100229.15;;;15.30;57.70
64460;BME280;50828;53.756;21.140;2022-09-21T14:27:51;100228.31;;;15.26;57.52
64460;BME280;50828;53.756;21.140;2022-09-21T14:33:15;100221.75;;;15.22;57.57
64460;BME280;50828;53.756;21.140;2022-09-21T14:38:27;100223.75;;;15.18;57.33
64460;BME280;50828;53.756;21.140;2022-09-21T14:43:36;100225.70;;;15.13;57.63
64460;BME280;50828;53.756;21.140;2022-09-21T14:48:55;100225.55;;;15.09;57.62
64460;BME280;50828;53.756;21.140;2022-09-21T14:54:16;100227.02;;;15.05;57.79
64460;BME280;50828;53.756;21.140;2022-09-21T14:59:29;100229.66;;;15.02;57.93
64460;BME280;50828;53.756;21.140;2022-09-21T15:04:53;100238.13;;;14.99;57.97
64460;BME280;50828;53.756;21.140;2022-09-21T15:10:17;100237.84;;;14.95;58.35
64460;BME280;50828;53.756;21.140;2022-09-21T15:15:55;100243.42;;;14.91;58.33
64460;BME280;50828;53.756;21.140;2022-09-21T15:21:15;100246.79;;;14.84;58.42
64460;BME280;50828;53.756;21.140;2022-09-21T15:26:28;100248.95;;;14.77;58.60
64460;BME280;50828;53.756;21.140;2022-09-21T15:31:38;100251.92;;;14.71;58.74
64460;BME280;50828;53.756;21.140;2022-09-21T15:36:46;100256.25;;;14.64;59.19
64460;BME280;50828;53.756;21.140;2022-09-21T15:42:19;100255.93;;;14.56;59.48
64460;BME280;50828;53.756;21.140;2022-09-21T15:47:28;100259.20;;;14.47;59.41
64460;BME280;50828;53.756;21.140;2022-09-21T15:52:39;100264.30;;;14.42;59.54
64460;BME280;50828;53.756;21.140;2022-09-21T15:57:49;100264.70;;;14.34;59.45
64460;BME280;50828;53.756;21.140;2022-09-21T16:03:03;100268.65;;;14.27;59.40
64460;BME280;50828;53.756;21.140;2022-09-21T16:08:25;100275.77;;;14.20;59.20
64460;BME280;50828;53.756;21.140;2022-09-21T16:13:34;100288.34;;;14.13;59.45
64460;BME280;50828;53.756;21.140;2022-09-21T16:18:59;100292.14;;;14.04;59.27
64460;BME280;50828;53.756;21.140;2022-09-21T16:24:15;100294.64;;;13.97;59.40
64460;BME280;50828;53.756;21.140;2022-09-21T16:29:25;100298.09;;;13.88;59.46
64460;BME280;50828;53.756;21.140;2022-09-21T16:34:33;100304.55;;;13.80;59.52
64460;BME280;50828;53.756;21.140;2022-09-21T16:39:41;100309.80;;;13.70;59.58
64460;BME280;50828;53.756;21.140;2022-09-21T16:44:49;100318.78;;;13.60;59.72
64460;BME280;50828;53.756;21.140;2022-09-21T16:49:58;100322.98;;;13.50;59.76
64460;BME280;50828;53.756;21.140;2022-09-21T16:55:08;100330.42;;;13.39;59.91
64460;BME280;50828;53.756;21.140;2022-09-21T17:00:18;100332.56;;;13.27;60.22
64460;BME280;50828;53.756;21.140;2022-09-21T17:05:26;100340.48;;;13.17;60.44
64460;BME280;50828;53.756;21.140;2022-09-21T17:10:37;100346.13;;;13.06;60.47
64460;BME280;50828;53.756;21.140;2022-09-21T17:15:48;100346.14;;;12.94;60.69
64460;BME280;50828;53.756;21.140;2022-09-21T17:20:55;100349.00;;;12.82;60.68
64460;BME280;50828;53.756;21.140;2022-09-21T17:26:02;100350.52;;;12.72;61.16
64460;BME280;50828;53.756;21.140;2022-09-21T17:31:11;100353.23;;;12.62;61.15
64460;BME280;50828;53.756;21.140;2022-09-21T17:36:20;100351.98;;;12.51;61.36
64460;BME280;50828;53.756;21.140;2022-09-21T17:41:31;100356.09;;;12.41;61.58
64460;BME280;50828;53.756;21.140;2022-09-21T17:46:49;100355.30;;;12.31;61.74
64460;BME280;50828;53.756;21.140;2022-09-21T17:52:00;100358.04;;;12.21;62.09
64460;BME280;50828;53.756;21.140;2022-09-21T17:57:33;100367.27;;;12.11;62.01
64460;BME280;50828;53.756;21.140;2022-09-21T18:02:46;100372.28;;;12.02;62.51
64460;BME280;50828;53.756;21.140;2022-09-21T18:07:55;100374.40;;;11.93;62.58
64460;BME280;50828;53.756;21.140;2022-09-21T18:13:19;100377.16;;;11.86;62.86
64460;BME280;50828;53.756;21.140;2022-09-21T18:18:38;100385.00;;;11.79;63.16
64460;BME280;50828;53.756;21.140;2022-09-21T18:24:13;100384.46;;;11.70;63.22
64460;BME280;50828;53.756;21.140;2022-09-21T18:29:26;100388.02;;;11.66;63.36
64460;BME280;50828;53.756;21.140;2022-09-21T18:35:06;100389.27;;;11.61;63.65
64460;BME280;50828;53.756;21.140;2022-09-21T18:40:22;100386.95;;;11.57;63.95
64460;BME280;50828;53.756;21.140;2022-09-21T18:45:37;100392.30;;;11.55;64.25
64460;BME280;50828;53.756;21.140;2022-09-21T18:50:52;100388.48;;;11.54;64.38
64460;BME280;50828;53.756;21.140;2022-09-21T18:56:06;100385.08;;;11.51;64.31
64460;BME280;50828;53.756;21.140;2022-09-21T19:01:17;100388.49;;;11.49;64.69
64460;BME280;50828;53.756;21.140;2022-09-21T19:06:41;100385.75;;;11.47;64.62
64460;BME280;50828;53.756;21.140;2022-09-21T19:11:56;100383.39;;;11.45;64.76
64460;BME280;50828;53.756;21.140;2022-09-21T19:17:15;100378.89;;;11.42;65.16
64460;BME280;50828;53.756;21.140;2022-09-21T19:22:33;100384.98;;;11.40;65.11
64460;BME280;50828;53.756;21.140;2022-09-21T19:27:51;100384.69;;;11.38;65.12
64460;BME280;50828;53.756;21.140;2022-09-21T19:33:22;100383.70;;;11.36;65.63
64460;BME280;50828;53.756;21.140;2022-09-21T19:38:52;100390.30;;;11.34;65.76
64460;BME280;50828;53.756;21.140;2022-09-21T19:44:06;100387.54;;;11.33;65.47
64460;BME280;50828;53.756;21.140;2022-09-21T19:49:18;100389.74;;;11.31;66.04
64460;BME280;50828;53.756;21.140;2022-09-21T19:54:26;100393.49;;;11.29;66.04
64460;BME280;50828;53.756;21.140;2022-09-21T19:59:53;100398.15;;;11.28;66.46
64460;BME280;50828;53.756;21.140;2022-09-21T20:05:03;100396.46;;;11.26;66.40
64460;BME280;50828;53.756;21.140;2022-09-21T20:15:57;100395.15;;;11.24;66.82
64460;BME280;50828;53.756;21.140;2022-09-21T20:21:12;100395.89;;;11.23;66.95
64460;BME280;50828;53.756;21.140;2022-09-21T20:26:24;100397.34;;;11.21;67.09
64460;BME280;50828;53.756;21.140;2022-09-21T20:31:31;100396.12;;;11.21;67.17
64460;BME280;50828;53.756;21.140;2022-09-21T20:36:38;100395.70;;;11.17;67.27
64460;BME280;50828;53.756;21.140;2022-09-21T20:41:45;100393.39;;;11.18;67.65
64460;BME280;50828;53.756;21.140;2022-09-21T20:46:53;100392.27;;;11.15;67.75
64460;BME280;50828;53.756;21.140;2022-09-21T20:52:01;100394.02;;;11.16;68.00
64460;BME280;50828;53.756;21.140;2022-09-21T20:57:08;100392.64;;;11.15;67.68
64460;BME280;50828;53.756;21.140;2022-09-21T21:02:16;100389.65;;;11.15;68.26
64460;BME280;50828;53.756;21.140;2022-09-21T21:07:23;100392.34;;;11.13;67.91
64460;BME280;50828;53.756;21.140;2022-09-21T21:12:34;100393.42;;;11.13;68.26
64460;BME280;50828;53.756;21.140;2022-09-21T21:17:45;100402.42;;;11.13;68.17
64460;BME280;50828;53.756;21.140;2022-09-21T21:22:52;100394.74;;;11.11;68.59
64460;BME280;50828;53.756;21.140;2022-09-21T21:28:00;100391.75;;;11.11;68.57
64460;BME280;50828;53.756;21.140;2022-09-21T21:33:08;100393.45;;;11.12;68.48
64460;BME280;50828;53.756;21.140;2022-09-21T21:38:15;100389.96;;;11.11;68.63
64460;BME280;50828;53.756;21.140;2022-09-21T21:43:23;100386.63;;;11.11;69.04
64460;BME280;50828;53.756;21.140;2022-09-21T21:48:30;100382.95;;;11.11;68.76
64460;BME280;50828;53.756;21.140;2022-09-21T21:53:39;100386.30;;;11.10;68.75
64460;BME280;50828;53.756;21.140;2022-09-21T21:58:49;100385.97;;;11.10;68.97
64460;BME280;50828;53.756;21.140;2022-09-21T22:03:58;100386.67;;;11.09;69.07
64460;BME280;50828;53.756;21.140;2022-09-21T22:09:08;100389.20;;;11.08;69.05
64460;BME280;50828;53.756;21.140;2022-09-21T22:14:16;100385.73;;;11.06;69.22
64460;BME280;50828;53.756;21.140;2022-09-21T22:19:24;100383.46;;;11.06;69.27
64460;BME280;50828;53.756;21.140;2022-09-21T22:24:32;100382.27;;;11.05;69.28
64460;BME280;50828;53.756;21.140;2022-09-21T22:29:39;100384.92;;;11.05;69.26
64460;BME280;50828;53.756;21.140;2022-09-21T22:34:46;100382.73;;;11.02;69.56
64460;BME280;50828;53.756;21.140;2022-09-21T22:39:55;100385.73;;;11.02;69.39
64460;BME280;50828;53.756;21.140;2022-09-21T22:45:05;100389.30;;;11.00;69.30
64460;BME280;50828;53.756;21.140;2022-09-21T22:50:13;100386.18;;;10.99;69.69
64460;BME280;50828;53.756;21.140;2022-09-21T22:55:20;100386.80;;;10.97;69.32
64460;BME280;50828;53.756;21.140;2022-09-21T23:00:29;100387.70;;;10.96;69.70
64460;BME280;50828;53.756;21.140;2022-09-21T23:05:36;100387.95;;;10.94;69.55
64460;BME280;50828;53.756;21.140;2022-09-21T23:10:44;100384.67;;;10.92;69.92
64460;BME280;50828;53.756;21.140;2022-09-21T23:15:51;100386.30;;;10.91;69.87
64460;BME280;50828;53.756;21.140;2022-09-21T23:21:01;100384.42;;;10.90;69.75
64460;BME280;50828;53.756;21.140;2022-09-21T23:26:12;100386.63;;;10.88;69.98
64460;BME280;50828;53.756;21.140;2022-09-21T23:31:21;100380.40;;;10.85;69.80
64460;BME280;50828;53.756;21.140;2022-09-21T23:36:30;100389.20;;;10.84;70.14
64460;BME280;50828;53.756;21.140;2022-09-21T23:41:37;100391.22;;;10.82;70.01
64460;BME280;50828;53.756;21.140;2022-09-21T23:46:45;100393.41;;;10.80;70.05
64460;BME280;50828;53.756;21.140;2022-09-21T23:51:52;100395.45;;;10.77;70.29
64460;BME280;50828;53.756;21.140;2022-09-21T23:56:59;100395.86;;;10.76;70.02
